Time;durP1;ratioP1;P1;durP2;ratioP2;P2;SDS_P1;SDS_P2;PMS_P1;PMS_P2;Temp;Humidity;BMP_temperature;BMP_pressure;BME280_temperature;BME280_humidity;BME280_pressure;Samples;Min_cycle;Max_cycle;Signal;HPM_P1;HPM_P2
2021/08/01 00:01:45;;;;;;;6.53;3.22;;;;;;;15.93;85.90;99553.97;5054597;28;20423;-70
2021/08/01 00:04:12;;;;;;;5.68;2.60;;;;;;;15.92;85.53;99554.13;5036956;28;20350;-70
2021/08/01 00:06:39;;;;;;;5.60;2.92;;;;;;;15.92;85.88;99556.81;5054470;28;20103;-69
2021/08/01 00:09:06;;;;;;;3.53;2.70;;;;;;;15.96;86.29;99547.47;5054585;28;20076;-69
2021/08/01 00:11:33;;;;;;;5.72;2.80;;;;;;;15.96;85.45;99539.41;5054278;28;20445;-69
2021/08/01 00:14:00;;;;;;;7.50;3.20;;;;;;;15.89;85.96;99534.56;5054745;28;20084;-68
2021/08/01 00:16:26;;;;;;;6.07;2.97;;;;;;;15.88;86.56;99538.25;5057819;28;20446;-69
2021/08/01 00:18:56;;;;;;;4.95;2.78;;;;;;;15.84;86.34;99533.25;5058588;28;20056;-69
2021/08/01 00:21:22;;;;;;;7.32;2.80;;;;;;;15.78;86.09;99520.38;5048589;28;20127;-69
2021/08/01 00:23:49;;;;;;;4.43;2.65;;;;;;;15.77;86.22;99527.63;5004702;28;20045;-70
2021/08/01 00:26:16;;;;;;;7.30;2.90;;;;;;;15.75;86.68;99516.16;5038615;28;20053;-70
2021/08/01 00:28:42;;;;;;;4.30;2.92;;;;;;;15.76;87.18;99515.16;5038382;28;20049;-70
2021/08/01 00:31:09;;;;;;;6.28;3.08;;;;;;;15.68;87.01;99512.34;5038388;28;20049;-69
2021/08/01 00:33:35;;;;;;;6.07;2.72;;;;;;;15.64;86.91;99514.47;5020785;28;20366;-69
2021/08/01 00:36:02;;;;;;;6.18;3.28;;;;;;;15.58;87.81;99510.50;5038173;28;20103;-69
2021/08/01 00:38:29;;;;;;;10.43;3.10;;;;;;;15.51;87.35;99500.47;5038053;28;20107;-69
2021/08/01 00:40:55;;;;;;;4.53;2.67;;;;;;;15.45;87.60;99500.03;5020661;28;20087;-70
2021/08/01 00:43:22;;;;;;;11.05;3.03;;;;;;;15.46;88.30;99503.56;5038640;28;20049;-70
2021/08/01 00:45:49;;;;;;;7.28;3.00;;;;;;;15.33;87.99;99503.84;5038136;28;20099;-70
2021/08/01 00:48:16;;;;;;;9.15;3.70;;;;;;;15.34;88.08;99501.03;5020429;28;20088;-69
2021/08/01 00:50:43;;;;;;;10.77;3.45;;;;;;;15.33;88.11;99501.16;5037849;28;20123;-70
2021/08/01 00:53:10;;;;;;;7.80;3.63;;;;;;;15.24;87.89;99491.25;5038109;28;20053;-70
2021/08/01 00:55:40;;;;;;;8.63;3.10;;;;;;;15.28;88.04;99493.53;5038083;28;20381;-70
2021/08/01 00:58:07;;;;;;;7.63;3.47;;;;;;;15.09;88.96;99472.00;5038202;28;20049;-69
2021/08/01 01:03:34;;;;;;;7.95;4.20;;;;;;;15.19;88.46;99494.34;5037853;28;20055;-70
2021/08/01 01:06:06;;;;;;;5.82;3.30;;;;;;;15.14;87.95;99483.19;5037696;28;20057;-69
2021/08/01 01:08:40;;;;;;;7.65;3.67;;;;;;;15.12;88.80;99499.44;5037757;28;20045;-70
2021/08/01 01:11:07;;;;;;;13.75;4.03;;;;;;;15.14;89.07;99499.31;5037470;28;20420;-70
2021/08/01 01:13:41;;;;;;;6.32;4.22;;;;;;;15.14;89.14;99496.63;5037744;28;20135;-70
2021/08/01 01:16:07;;;;;;;7.07;4.35;;;;;;;15.10;89.38;99501.44;5047030;28;20720;-70
2021/08/01 01:18:41;;;;;;;9.85;5.18;;;;;;;15.07;89.81;99501.69;5039812;28;20339;-68
2021/08/01 01:21:30;;;;;;;7.55;4.03;;;;;;;15.08;89.65;99498.03;5032188;28;20107;-70
2021/08/01 01:24:13;;;;;;;7.47;4.32;;;;;;;15.03;89.67;99494.91;5037252;28;20099;-69
2021/08/01 01:27:04;;;;;;;8.43;4.30;;;;;;;14.96;90.34;99501.81;5037030;28;20050;-70
2021/08/01 01:30:04;;;;;;;10.05;4.70;;;;;;;14.90;90.36;99501.41;5037282;28;20187;-70
2021/08/01 01:32:49;;;;;;;7.70;4.60;;;;;;;14.99;89.98;99505.06;5037364;28;20050;-69
2021/08/01 01:35:19;;;;;;;6.47;4.60;;;;;;;14.93;90.39;99500.28;5037235;28;20057;-69
2021/08/01 01:37:51;;;;;;;6.93;4.35;;;;;;;15.07;90.45;99513.31;5037309;28;20088;-69
2021/08/01 01:40:21;;;;;;;8.98;4.70;;;;;;;15.15;89.53;99501.00;5036971;28;20049;-69
2021/08/01 01:42:53;;;;;;;6.28;4.50;;;;;;;15.20;90.06;99506.81;5019783;28;20104;-69
2021/08/01 01:45:21;;;;;;;8.30;5.35;;;;;;;15.17;89.72;99496.34;5019564;28;20084;-70
2021/08/01 01:47:51;;;;;;;6.72;4.93;;;;;;;15.19;90.01;99505.09;5019711;28;20088;-69
2021/08/01 01:50:20;;;;;;;8.82;5.07;;;;;;;15.13;90.09;99500.28;5019892;28;20178;-69
2021/08/01 01:52:49;;;;;;;6.40;4.60;;;;;;;15.19;89.73;99510.47;5019413;28;20348;-69
2021/08/01 01:55:17;;;;;;;11.38;5.05;;;;;;;15.14;89.76;99507.38;5036634;28;20450;-69
2021/08/01 01:57:45;;;;;;;10.48;5.22;;;;;;;15.16;90.47;99516.16;5037073;28;20058;-69
2021/08/01 02:00:13;;;;;;;6.43;4.85;;;;;;;15.17;90.40;99512.47;5036534;28;20046;-69
2021/08/01 02:02:40;;;;;;;8.27;5.07;;;;;;;15.11;90.05;99513.88;5036938;28;20096;-69
2021/08/01 02:05:09;;;;;;;8.68;5.40;;;;;;;15.10;90.38;99505.94;5036775;28;20128;-68
2021/08/01 02:07:37;;;;;;;9.30;5.47;;;;;;;15.05;90.38;99511.75;5036634;28;20053;-70
2021/08/01 02:10:12;;;;;;;7.22;5.63;;;;;;;15.01;91.06;99502.25;5036588;28;20049;-69
2021/08/01 02:12:46;;;;;;;9.63;5.70;;;;;;;14.97;91.01;99500.84;5036682;28;20053;-70
2021/08/01 02:15:15;;;;;;;9.38;5.65;;;;;;;14.89;91.82;99496.16;5038413;28;20050;-70
2021/08/01 02:17:42;;;;;;;8.68;6.20;;;;;;;14.89;91.22;99501.53;5056404;28;20052;-69
2021/08/01 02:20:10;;;;;;;11.13;6.07;;;;;;;14.82;91.48;99490.47;5056002;28;20523;-69
2021/08/01 02:22:39;;;;;;;10.80;5.70;;;;;;;14.87;91.54;99509.72;5036558;28;20077;-70
2021/08/01 02:25:06;;;;;;;7.30;5.82;;;;;;;14.84;91.76;99509.16;5036016;28;20049;-69
2021/08/01 02:27:34;;;;;;;12.07;6.47;;;;;;;14.76;92.47;99505.31;5036528;28;20073;-69
2021/08/01 02:30:02;;;;;;;9.77;6.25;;;;;;;14.62;91.95;99476.97;5038136;28;20049;-69
2021/08/01 02:32:31;;;;;;;9.40;5.95;;;;;;;14.72;92.67;99509.25;5056275;28;20102;-69
2021/08/01 02:35:00;;;;;;;11.88;6.05;;;;;;;14.68;92.59;99513.19;5055827;28;20450;-70
2021/08/01 02:37:28;;;;;;;12.35;6.47;;;;;;;14.71;92.28;99512.88;5055115;28;20045;-70
2021/08/01 02:39:55;;;;;;;10.75;6.20;;;;;;;14.57;92.45;99505.22;5038513;28;20094;-70
2021/08/01 02:42:23;;;;;;;10.25;6.30;;;;;;;14.64;92.20;99515.28;5038127;28;20052;-69
2021/08/01 02:44:52;;;;;;;11.15;6.43;;;;;;;14.64;92.18;99512.59;5038281;28;20049;-70
2021/08/01 02:47:20;;;;;;;12.77;6.15;;;;;;;14.71;92.51;99507.53;5055758;28;20121;-70
2021/08/01 02:49:48;;;;;;;13.10;5.95;;;;;;;14.61;92.31;99512.84;5055832;28;20053;-69
2021/08/01 02:52:20;;;;;;;11.27;5.80;;;;;;;14.62;92.31;99505.66;5037920;28;20056;-69
2021/08/01 02:54:50;;;;;;;13.00;5.50;;;;;;;14.56;92.96;99511.56;5055547;28;20093;-69
2021/08/01 02:57:18;;;;;;;11.93;5.78;;;;;;;14.60;93.24;99515.69;5055504;28;20397;-70
2021/08/01 02:59:46;;;;;;;13.90;5.75;;;;;;;14.57;92.60;99505.22;5055321;28;20095;-70
2021/08/01 03:02:13;;;;;;;11.68;6.25;;;;;;;14.59;93.60;99512.16;5055587;28;20114;-69
2021/08/01 03:04:40;;;;;;;10.45;5.88;;;;;;;14.47;93.13;99494.44;5055273;28;20068;-69
2021/08/01 03:07:08;;;;;;;17.27;6.65;;;;;;;14.50;93.27;99500.38;5055513;28;20056;-69
2021/08/01 03:09:34;;;;;;;14.02;5.85;;;;;;;14.51;93.43;99501.25;5055336;28;20080;-70
2021/08/01 03:12:19;;;;;;;11.75;6.05;;;;;;;14.48;93.24;99501.50;5037556;28;20064;-69
2021/08/01 03:14:46;;;;;;;10.40;6.18;;;;;;;14.51;93.35;99506.63;5037630;28;20083;-68
2021/08/01 03:17:13;;;;;;;16.42;6.97;;;;;;;14.52;93.45;99509.19;5055377;28;20085;-70
2021/08/01 03:19:39;;;;;;;11.48;5.75;;;;;;;14.43;93.42;99498.41;5054997;28;20041;-70
2021/08/01 03:22:07;;;;;;;15.38;6.15;;;;;;;14.46;93.91;99508.84;5038975;28;20054;-69
2021/08/01 03:24:34;;;;;;;8.90;5.35;;;;;;;14.40;93.59;99508.41;5017731;28;20080;-70
2021/08/01 03:27:00;;;;;;;10.57;5.72;;;;;;;14.42;93.29;99508.28;5034952;28;20435;-70
2021/08/01 03:29:27;;;;;;;9.95;6.15;;;;;;;14.37;94.37;99518.56;5035211;28;20049;-70
2021/08/01 03:31:53;;;;;;;11.98;5.65;;;;;;;14.34;94.12;99521.53;5017663;28;20053;-70
2021/08/01 03:34:20;;;;;;;12.10;5.70;;;;;;;14.31;93.88;99525.31;5034777;28;20386;-70
2021/08/01 03:36:48;;;;;;;13.88;5.75;;;;;;;14.34;94.40;99532.25;5016866;28;20513;-69
2021/08/01 03:39:15;;;;;;;10.35;5.78;;;;;;;14.32;93.45;99521.66;5034820;28;20053;-70
2021/08/01 03:41:42;;;;;;;11.23;5.15;;;;;;;14.29;93.97;99518.38;5017397;28;20153;-69
2021/08/01 03:44:10;;;;;;;12.32;5.80;;;;;;;14.19;94.58;99507.59;5033519;28;20120;-68
2021/08/01 03:46:36;;;;;;;10.93;5.78;;;;;;;14.23;93.96;99520.59;5017411;28;20430;-69
2021/08/01 03:49:03;;;;;;;13.15;6.22;;;;;;;14.19;93.75;99507.59;5034586;28;20049;-69
2021/08/01 03:51:30;;;;;;;9.65;6.47;;;;;;;14.18;94.72;99520.19;5034628;28;20046;-68
2021/08/01 03:53:56;;;;;;;13.18;5.97;;;;;;;14.19;94.01;99518.31;5034602;28;20111;-69
2021/08/01 03:56:23;;;;;;;11.05;5.88;;;;;;;14.17;94.45;99518.44;5034540;28;20053;-68
2021/08/01 03:58:49;;;;;;;17.13;6.72;;;;;;;14.11;93.93;99513.66;5017519;28;20058;-69
2021/08/01 04:01:16;;;;;;;13.77;6.30;;;;;;;14.15;94.54;99520.44;5034394;28;20107;-68
2021/08/01 04:03:43;;;;;;;11.50;6.20;;;;;;;14.14;94.60;99526.78;5034555;28;20049;-68
2021/08/01 04:06:10;;;;;;;12.77;6.43;;;;;;;14.05;94.54;99515.00;5034690;28;20057;-69
2021/08/01 04:08:37;;;;;;;15.82;6.97;;;;;;;14.07;94.84;99520.25;5034545;28;20096;-69
2021/08/01 04:11:04;;;;;;;11.85;7.03;;;;;;;14.03;94.73;99502.69;5017135;28;20127;-69
2021/08/01 04:13:32;;;;;;;14.27;6.90;;;;;;;13.89;95.33;99518.16;5034417;28;20107;-70
2021/08/01 04:15:59;;;;;;;12.60;7.45;;;;;;;13.94;94.95;99499.84;5025330;28;20132;-69
2021/08/01 04:18:28;;;;;;;12.10;6.40;;;;;;;13.98;95.08;99517.38;5036891;28;20136;-69
2021/08/01 04:20:55;;;;;;;10.55;6.35;;;;;;;13.96;95.10;99513.97;5048078;28;20281;-69
2021/08/01 04:23:22;;;;;;;15.30;7.03;;;;;;;13.97;95.56;99507.63;5034674;28;20413;-70
2021/08/01 04:25:48;;;;;;;12.15;7.35;;;;;;;13.92;94.97;99512.53;5034666;28;20057;-69
2021/08/01 04:28:15;;;;;;;11.63;6.90;;;;;;;13.93;95.19;99506.19;5034284;28;20497;-70
2021/08/01 04:30:42;;;;;;;11.35;6.32;;;;;;;13.88;95.09;99505.72;5017060;28;20057;-69
2021/08/01 04:33:08;;;;;;;13.27;7.28;;;;;;;13.73;94.93;99475.69;5034393;28;20127;-70
2021/08/01 04:35:35;;;;;;;12.65;7.00;;;;;;;13.89;94.97;99507.41;5034507;28;20143;-70
2021/08/01 04:38:01;;;;;;;12.40;6.50;;;;;;;13.80;95.66;99500.16;5034241;28;20049;-70
2021/08/01 04:40:29;;;;;;;14.15;6.32;;;;;;;13.79;95.60;99504.66;5034529;28;20041;-70
2021/08/01 04:42:55;;;;;;;11.52;5.88;;;;;;;13.82;95.60;99503.56;5034225;28;20489;-69
2021/08/01 04:45:22;;;;;;;13.38;6.47;;;;;;;13.78;95.94;99500.28;5034532;28;20049;-69
2021/08/01 04:47:49;;;;;;;13.82;6.63;;;;;;;13.83;95.60;99497.22;5016828;28;20049;-70
2021/08/01 04:50:16;;;;;;;16.17;6.60;;;;;;;13.81;95.29;99502.72;5034125;28;20498;-69
2021/08/01 04:52:42;;;;;;;14.80;6.05;;;;;;;13.80;95.23;99495.66;5034093;28;20045;-69
2021/08/01 04:55:10;;;;;;;16.27;6.68;;;;;;;13.80;95.24;99498.34;5034375;28;20053;-68
2021/08/01 04:57:36;;;;;;;16.25;7.10;;;;;;;13.74;95.39;99492.66;5034126;28;20103;-71
2021/08/01 05:00:05;;;;;;;13.80;7.20;;;;;;;13.81;95.76;99510.78;5034092;28;20127;-70
2021/08/01 05:02:32;;;;;;;14.68;6.18;;;;;;;13.90;95.43;99503.75;5054229;28;20053;-70
2021/08/01 05:05:01;;;;;;;14.35;6.22;;;;;;;13.90;94.84;99509.13;5033718;28;20053;-70
2021/08/01 05:07:29;;;;;;;13.27;6.20;;;;;;;13.97;94.63;99499.59;5057796;28;20110;-69
2021/08/01 05:09:56;;;;;;;15.10;6.70;;;;;;;13.86;95.09;99496.97;5055989;28;20335;-69
2021/08/01 05:12:22;;;;;;;13.20;6.68;;;;;;;14.04;94.90;99510.63;5020438;28;20072;-69
2021/08/01 05:14:49;;;;;;;14.07;6.93;;;;;;;14.06;94.50;99499.78;5037782;28;20053;-70
2021/08/01 05:17:16;;;;;;;16.25;7.53;;;;;;;14.07;93.92;99501.47;5056027;28;20048;-69
2021/08/01 05:19:43;;;;;;;14.88;7.40;;;;;;;14.13;93.87;99515.19;5045680;28;20057;-70
2021/08/01 05:22:11;;;;;;;20.77;7.25;;;;;;;14.16;94.39;99516.75;5053825;28;20110;-69
2021/08/01 05:24:39;;;;;;;17.25;7.22;;;;;;;14.20;93.60;99510.16;5057251;28;20048;-70
2021/08/01 05:27:06;;;;;;;16.00;7.22;;;;;;;14.29;93.20;99513.88;5057152;28;20052;-69
2021/08/01 05:29:34;;;;;;;15.80;7.60;;;;;;;14.28;93.63;99505.94;5039622;28;20438;-69
2021/08/01 05:32:00;;;;;;;14.23;8.18;;;;;;;14.30;93.08;99495.91;5056835;28;20523;-69
2021/08/01 05:34:27;;;;;;;18.00;7.82;;;;;;;14.44;92.58;99508.97;5039398;28;20052;-70
2021/08/01 05:36:54;;;;;;;17.35;8.32;;;;;;;14.33;93.13;99503.72;5057136;28;20094;-70
2021/08/01 05:39:20;;;;;;;17.10;8.45;;;;;;;14.35;93.07;99499.91;5057100;28;20053;-70
2021/08/01 05:41:47;;;;;;;18.08;8.98;;;;;;;14.42;93.24;99502.06;5056720;28;20099;-70
2021/08/01 05:44:14;;;;;;;16.15;8.70;;;;;;;14.46;92.71;99508.84;5039222;28;20049;-70
2021/08/01 05:46:40;;;;;;;18.70;8.98;;;;;;;14.36;92.12;99501.63;5056960;28;20053;-70
2021/08/01 05:49:07;;;;;;;24.52;9.05;;;;;;;14.35;91.96;99512.47;5022719;28;20057;-70
2021/08/01 05:51:34;;;;;;;16.60;9.02;;;;;;;14.32;92.64;99491.28;5056597;28;20045;-69
2021/08/01 05:54:00;;;;;;;18.15;8.68;;;;;;;14.36;91.98;99488.19;5056939;28;20056;-69
2021/08/01 05:56:29;;;;;;;18.92;8.35;;;;;;;14.51;92.00;99507.44;5056618;28;20140;-68
2021/08/01 05:58:55;;;;;;;18.15;8.95;;;;;;;14.38;91.66;99501.47;5056600;28;20091;-69
2021/08/01 06:01:25;;;;;;;16.95;8.75;;;;;;;14.36;91.71;99508.81;5054800;28;20048;-69
2021/08/01 06:03:52;;;;;;;20.02;9.15;;;;;;;14.38;91.98;99501.47;5045130;28;20052;-69
2021/08/01 06:06:22;;;;;;;15.13;8.85;;;;;;;14.33;92.39;99507.25;5056127;28;20055;-70
2021/08/01 06:08:52;;;;;;;14.45;9.05;;;;;;;14.27;92.84;99494.34;5056422;28;20143;-70
2021/08/01 06:11:21;;;;;;;18.13;9.52;;;;;;;14.44;92.09;99497.41;5056559;28;20053;-70
2021/08/01 06:13:49;;;;;;;15.00;8.63;;;;;;;14.52;91.83;99509.19;5055803;28;20053;-69
2021/08/01 06:16:16;;;;;;;22.25;9.50;;;;;;;14.48;91.23;99499.69;5055859;28;20060;-70
2021/08/01 06:18:45;;;;;;;23.70;10.68;;;;;;;14.50;91.39;99495.00;5055878;28;20395;-69
2021/08/01 06:21:17;;;;;;;19.85;10.27;;;;;;;14.55;90.86;99496.44;5038092;28;20136;-69
2021/08/01 06:23:45;;;;;;;18.67;10.32;;;;;;;14.42;90.75;99494.84;5055367;28;20049;-76
2021/08/01 06:26:13;;;;;;;17.65;10.10;;;;;;;14.59;90.23;99504.09;5053423;28;20060;-71
2021/08/01 06:28:40;;;;;;;18.85;9.77;;;;;;;14.59;90.02;99505.94;5038348;28;20128;-71
2021/08/01 06:31:08;;;;;;;17.88;10.07;;;;;;;14.62;90.58;99508.34;5055731;28;20060;-70
2021/08/01 06:33:36;;;;;;;14.30;8.60;;;;;;;14.72;89.94;99513.75;5056775;28;20088;-70
2021/08/01 06:36:07;;;;;;;16.95;9.15;;;;;;;14.72;88.99;99522.69;5054427;28;20045;-69
2021/08/01 06:38:33;;;;;;;13.25;8.23;;;;;;;14.82;88.25;99514.66;5054787;28;20126;-72
2021/08/01 06:41:04;;;;;;;15.45;8.98;;;;;;;14.69;87.87;99517.56;5054777;28;20041;-72
2021/08/01 06:43:32;;;;;;;18.40;8.95;;;;;;;14.72;88.67;99524.50;5054920;28;20045;-70
2021/08/01 06:45:59;;;;;;;13.70;8.07;;;;;;;14.83;88.57;99513.69;5054345;28;20068;-70
2021/08/01 06:48:26;;;;;;;16.33;8.23;;;;;;;14.89;87.81;99514.97;5043512;28;20434;-70
2021/08/01 06:50:53;;;;;;;15.80;7.68;;;;;;;14.98;87.84;99514.13;5055101;28;20057;-70
2021/08/01 06:53:20;;;;;;;15.05;8.05;;;;;;;15.10;87.21;99525.63;5066168;28;20495;-70
2021/08/01 06:55:47;;;;;;;12.95;7.47;;;;;;;14.96;86.77;99504.50;5054203;28;20056;-69
2021/08/01 06:58:20;;;;;;;18.67;7.85;;;;;;;15.07;86.88;99523.19;5057945;28;20071;-75
2021/08/01 07:00:47;;;;;;;12.18;6.88;;;;;;;14.99;85.61;99513.13;5048111;28;20045;-76
2021/08/01 07:03:14;;;;;;;16.95;7.68;;;;;;;15.07;86.45;99518.69;5055082;28;20055;-76
2021/08/01 07:05:41;;;;;;;15.45;6.95;;;;;;;15.17;85.92;99526.75;5061375;28;20053;-75
2021/08/01 07:08:08;;;;;;;11.15;6.90;;;;;;;15.13;85.65;99533.41;5037117;28;20328;-75
2021/08/01 07:10:35;;;;;;;11.02;7.05;;;;;;;14.99;85.89;99533.78;5063600;28;20048;-77
2021/08/01 07:13:05;;;;;;;15.77;6.68;;;;;;;15.06;86.58;99533.13;5054726;28;20103;-74
2021/08/01 07:15:32;;;;;;;14.30;7.03;;;;;;;15.05;86.08;99530.56;5056933;28;20051;-74
2021/08/01 07:17:59;;;;;;;12.10;7.18;;;;;;;15.05;86.46;99535.94;5054616;28;20057;-74
2021/08/01 07:20:27;;;;;;;13.27;6.57;;;;;;;15.16;86.49;99537.66;5054377;28;20044;-75
2021/08/01 07:22:54;;;;;;;13.38;6.32;;;;;;;15.18;86.74;99539.22;5037121;28;20052;-76
2021/08/01 07:25:23;;;;;;;10.43;6.65;;;;;;;15.25;86.18;99534.13;5052877;28;20442;-77
2021/08/01 07:27:50;;;;;;;13.18;7.18;;;;;;;15.28;86.77;99536.53;5054522;28;20053;-75
2021/08/01 07:30:17;;;;;;;13.65;7.78;;;;;;;15.38;85.88;99538.38;5039037;28;20118;-75
2021/08/01 07:32:45;;;;;;;16.52;7.47;;;;;;;15.19;86.50;99534.66;5053963;28;20064;-77
2021/08/01 07:35:12;;;;;;;10.50;7.10;;;;;;;15.29;86.26;99527.47;5052747;28;20048;-70
2021/08/01 07:37:39;;;;;;;14.65;7.22;;;;;;;15.09;87.23;99541.88;5054191;28;20113;-69
2021/08/01 07:40:07;;;;;;;14.95;7.03;;;;;;;15.33;86.93;99542.34;5047443;28;20102;-70
2021/08/01 07:42:34;;;;;;;18.23;6.93;;;;;;;15.37;86.07;99539.38;5053454;28;20045;-70
2021/08/01 07:45:03;;;;;;;15.02;6.75;;;;;;;15.43;86.06;99534.25;5053509;28;20053;-70
2021/08/01 07:47:31;;;;;;;13.93;7.53;;;;;;;15.61;85.59;99544.34;5035230;28;20122;-70
2021/08/01 07:49:57;;;;;;;13.93;6.90;;;;;;;15.78;85.30;99542.78;5054453;28;20069;-70
2021/08/01 07:52:24;;;;;;;13.55;6.80;;;;;;;15.76;84.67;99536.69;5054577;28;20049;-70
2021/08/01 07:54:54;;;;;;;20.52;7.35;;;;;;;15.79;83.64;99528.31;5037509;28;20057;-70
2021/08/01 07:57:26;;;;;;;16.90;6.47;;;;;;;15.79;84.19;99541.78;5036812;28;20099;-70
2021/08/01 07:59:57;;;;;;;14.40;6.30;;;;;;;15.75;84.49;99537.69;5062057;28;20053;-70
2021/08/01 08:02:29;;;;;;;13.35;5.97;;;;;;;15.70;84.40;99540.78;5054431;28;20057;-70
2021/08/01 08:04:55;;;;;;;16.77;5.88;;;;;;;15.80;84.29;99543.47;5053677;28;20044;-69
2021/08/01 08:07:22;;;;;;;16.13;6.38;;;;;;;15.95;83.91;99537.69;5054567;28;20430;-69
2021/08/01 08:09:49;;;;;;;15.23;5.75;;;;;;;16.01;84.33;99547.84;5054470;28;20148;-69
2021/08/01 08:12:17;;;;;;;13.23;6.90;;;;;;;16.02;83.21;99546.88;5051093;28;20423;-69
2021/08/01 08:14:44;;;;;;;14.15;6.50;;;;;;;15.93;83.93;99548.59;5034878;28;20111;-69
2021/08/01 08:17:11;;;;;;;12.77;6.60;;;;;;;15.90;84.43;99540.75;5034548;28;20084;-69
2021/08/01 08:19:41;;;;;;;13.73;6.45;;;;;;;15.96;83.93;99544.78;5034743;28;20346;-69
2021/08/01 08:22:09;;;;;;;9.15;4.43;;;;;;;16.22;83.82;99546.81;5050510;28;20048;-69
2021/08/01 08:24:36;;;;;;;14.98;6.30;;;;;;;16.33;82.86;99549.34;5054295;28;20099;-69
2021/08/01 08:27:03;;;;;;;17.70;6.10;;;;;;;16.15;82.55;99543.88;5036787;28;20053;-69
2021/08/01 08:29:30;;;;;;;13.70;6.18;;;;;;;16.06;83.37;99534.81;5054614;28;20053;-69
2021/08/01 08:31:58;;;;;;;14.25;6.22;;;;;;;16.18;82.83;99546.25;5020437;28;20398;-70
2021/08/01 08:34:26;;;;;;;12.43;5.43;;;;;;;16.23;82.97;99562.84;5054077;28;20049;-69
2021/08/01 08:36:54;;;;;;;16.85;6.18;;;;;;;16.08;82.96;99553.53;5056424;28;20053;-69
2021/08/01 08:39:22;;;;;;;13.65;5.75;;;;;;;16.07;83.17;99547.28;5058396;28;20385;-69
2021/08/01 08:41:50;;;;;;;14.52;5.70;;;;;;;16.00;83.36;99557.78;5055447;28;20160;-69
2021/08/01 08:44:17;;;;;;;13.70;5.53;;;;;;;16.19;83.64;99549.81;5054112;28;20053;-69
2021/08/01 08:46:46;;;;;;;10.13;4.82;;;;;;;16.31;83.34;99540.59;5033675;28;20053;-70
2021/08/01 08:49:15;;;;;;;12.10;5.10;;;;;;;16.39;83.67;99554.16;5038075;28;20049;-69
2021/08/01 08:51:45;;;;;;;13.77;5.60;;;;;;;16.47;82.60;99553.44;5022364;28;20050;-70
2021/08/01 08:54:17;;;;;;;14.10;5.50;;;;;;;16.49;83.05;99564.03;5046720;28;20394;-69
2021/08/01 08:56:45;;;;;;;14.70;5.15;;;;;;;16.48;82.34;99552.44;5038137;28;20053;-69
2021/08/01 08:59:16;;;;;;;10.45;6.00;;;;;;;16.58;81.23;99554.22;5038137;28;20104;-69
2021/08/01 09:01:43;;;;;;;13.32;5.07;;;;;;;16.68;82.09;99561.28;5038145;28;20103;-69
2021/08/01 09:04:10;;;;;;;15.95;5.95;;;;;;;16.59;81.43;99559.47;5020402;28;20049;-69
2021/08/01 09:06:37;;;;;;;18.02;5.50;;;;;;;16.75;81.31;99558.00;5037627;28;20046;-69
2021/08/01 09:09:04;;;;;;;9.95;5.45;;;;;;;16.76;80.54;99555.16;5037925;28;20117;-69
2021/08/01 09:11:31;;;;;;;15.32;5.40;;;;;;;16.91;80.98;99557.34;5037366;28;20050;-69
2021/08/01 09:13:58;;;;;;;14.02;5.85;;;;;;;17.22;80.12;99551.69;5037610;28;20057;-69
2021/08/01 09:16:43;;;;;;;11.55;5.47;;;;;;;17.44;79.37;99565.72;5037532;28;20045;-70
2021/08/01 09:19:30;;;;;;;12.27;5.05;;;;;;;17.65;78.34;99562.69;5037613;28;20079;-69
2021/08/01 09:22:22;;;;;;;13.27;4.53;;;;;;;17.71;77.79;99569.34;5052003;28;20052;-69
2021/08/01 09:24:51;;;;;;;7.65;4.10;;;;;;;17.74;77.58;99550.13;5040075;28;20102;-70
2021/08/01 09:27:29;;;;;;;8.45;5.28;;;;;;;17.84;76.93;99566.25;5057227;28;20107;-69
2021/08/01 09:29:56;;;;;;;11.15;4.53;;;;;;;17.90;76.96;99561.09;5057212;28;20486;-70
2021/08/01 09:32:24;;;;;;;9.07;4.20;;;;;;;17.95;77.40;99557.03;5057268;28;20426;-69
2021/08/01 09:34:52;;;;;;;10.57;4.88;;;;;;;17.81;75.73;99566.56;5057752;28;20373;-70
2021/08/01 09:37:34;;;;;;;7.40;4.38;;;;;;;17.73;77.58;99570.03;5057102;28;20393;-70
2021/08/01 09:40:07;;;;;;;14.95;4.80;;;;;;;17.90;76.52;99565.63;5040090;28;20071;-70
2021/08/01 09:42:46;;;;;;;10.70;5.28;;;;;;;17.68;77.04;99575.91;5056947;28;20076;-70
2021/08/01 09:45:18;;;;;;;10.45;5.15;;;;;;;17.53;77.48;99574.75;5056916;28;20098;-70
2021/08/01 09:47:46;;;;;;;11.57;5.05;;;;;;;17.58;77.73;99577.81;5056407;28;20060;-70
2021/08/01 09:50:15;;;;;;;10.82;5.05;;;;;;;17.62;78.17;99581.91;5056926;28;20434;-70
2021/08/01 09:52:42;;;;;;;18.27;5.50;;;;;;;17.70;78.15;99581.97;5056932;28;20320;-70
2021/08/01 09:55:20;;;;;;;11.10;4.28;;;;;;;17.84;78.00;99586.00;5044906;28;20107;-70
2021/08/01 09:57:54;;;;;;;11.20;5.22;;;;;;;17.68;77.29;99580.44;5036947;28;20111;-70
2021/08/01 10:00:23;;;;;;;15.25;4.88;;;;;;;17.98;77.44;99572.94;5036729;28;20473;-70
2021/08/01 10:02:50;;;;;;;11.98;4.70;;;;;;;18.27;76.56;99572.69;5036489;28;20132;-69
2021/08/01 10:05:20;;;;;;;11.60;4.60;;;;;;;18.31;75.02;99579.47;5036538;28;20397;-70
2021/08/01 10:07:49;;;;;;;10.15;4.80;;;;;;;18.60;74.33;99580.16;5036440;28;20053;-70
2021/08/01 10:10:21;;;;;;;11.38;4.57;;;;;;;18.62;73.28;99580.81;5036567;28;20111;-70
2021/08/01 10:12:49;;;;;;;10.70;5.25;;;;;;;18.32;73.42;99578.44;5036293;28;20099;-70
2021/08/01 10:15:16;;;;;;;11.25;5.22;;;;;;;18.43;73.74;99577.31;5036369;28;20045;-69
2021/08/01 10:17:43;;;;;;;9.25;4.70;;;;;;;18.19;74.17;99565.38;5036153;28;20435;-70
2021/08/01 10:20:10;;;;;;;11.02;4.50;;;;;;;18.32;73.59;99564.94;5036434;28;20107;-70
2021/08/01 10:22:38;;;;;;;10.43;4.70;;;;;;;18.31;73.58;99574.06;5036205;28;20049;-70
2021/08/01 10:25:21;;;;;;;11.43;4.50;;;;;;;18.27;74.50;99571.84;5036570;28;20053;-70
2021/08/01 10:27:52;;;;;;;10.23;3.60;;;;;;;18.41;74.24;99571.25;5036235;28;20099;-71
2021/08/01 10:30:21;;;;;;;8.02;4.38;;;;;;;18.78;72.54;99571.13;5036388;28;20053;-71
2021/08/01 10:32:54;;;;;;;9.55;4.03;;;;;;;18.99;72.27;99573.38;5036000;28;20431;-70
2021/08/01 10:35:22;;;;;;;11.80;4.22;;;;;;;18.94;73.03;99570.31;5036091;28;20046;-70
2021/08/01 10:37:58;;;;;;;12.45;4.72;;;;;;;18.66;73.50;99581.34;5035032;28;20099;-70
2021/08/01 10:40:26;;;;;;;11.85;4.40;;;;;;;18.42;75.59;99564.84;5036206;28;20100;-70
2021/08/01 10:42:59;;;;;;;16.20;4.80;;;;;;;17.97;78.29;99560.47;5035894;28;20450;-70
2021/08/01 10:45:26;;;;;;;7.95;4.78;;;;;;;17.73;82.72;99570.03;5036000;28;20053;-70
2021/08/01 10:47:54;;;;;;;11.18;5.00;;;;;;;17.47;84.03;99568.97;5034697;28;20053;-70
2021/08/01 10:50:28;;;;;;;11.90;5.25;;;;;;;17.53;87.41;99567.47;5035974;28;20057;-70
2021/08/01 10:53:20;;;;;;;11.15;6.18;;;;;;;17.71;86.85;99563.94;5034806;28;20049;-70
2021/08/01 10:55:51;;;;;;;14.48;5.03;;;;;;;18.02;84.61;99566.22;5052524;28;20439;-70
2021/08/01 10:58:18;;;;;;;9.02;5.05;;;;;;;18.30;84.77;99571.53;5054955;28;20049;-70
2021/08/01 11:00:54;;;;;;;13.13;5.50;;;;;;;18.41;79.55;99560.44;5055537;28;20074;-70
2021/08/01 11:03:23;;;;;;;13.23;5.22;;;;;;;18.37;80.59;99561.78;5038244;28;20318;-70
2021/08/01 11:05:50;;;;;;;14.38;5.22;;;;;;;18.48;81.42;99554.41;5055371;28;20056;-70
2021/08/01 11:08:16;;;;;;;11.77;5.10;;;;;;;18.73;79.52;99549.97;5055324;28;20346;-69
2021/08/01 11:10:44;;;;;;;14.02;5.68;;;;;;;18.78;78.05;99542.22;5054993;28;20107;-69
2021/08/01 11:13:29;;;;;;;10.85;5.40;;;;;;;18.83;75.56;99545.28;5037815;28;20060;-70
2021/08/01 11:15:56;;;;;;;13.38;5.03;;;;;;;18.62;76.95;99558.38;5055383;28;20102;-70
2021/08/01 11:18:36;;;;;;;10.70;4.70;;;;;;;18.46;77.16;99549.16;5054901;28;20430;-69
2021/08/01 11:21:04;;;;;;;14.73;5.32;;;;;;;18.32;81.72;99553.31;5054999;28;20114;-70
2021/08/01 11:23:46;;;;;;;10.43;5.63;;;;;;;17.80;87.03;99556.78;5054987;28;20061;-69
2021/08/01 11:26:13;;;;;;;12.07;4.60;;;;;;;17.54;87.26;99553.00;5055151;28;20053;-70
2021/08/01 11:28:42;;;;;;;10.75;5.25;;;;;;;17.42;88.10;99541.59;5054994;28;20572;-70
2021/08/01 11:31:18;;;;;;;13.52;5.53;;;;;;;17.59;86.48;99547.16;5037758;28;20091;-69
2021/08/01 11:33:47;;;;;;;10.68;5.28;;;;;;;17.81;84.70;99544.97;5054794;28;20415;-70
2021/08/01 11:36:15;;;;;;;9.82;5.05;;;;;;;17.70;83.79;99549.59;5054724;28;20431;-70
2021/08/01 11:38:48;;;;;;;8.93;5.07;;;;;;;17.61;87.23;99554.06;5054598;28;20044;-70